Time;durP1;ratioP1;P1;durP2;ratioP2;P2;SDS_P1;SDS_P2;PMS_P1;PMS_P2;Temp;Humidity;BMP_temperature;BMP_pressure;BME280_temperature;BME280_humidity;BME280_pressure;Samples;Min_cycle;Max_cycle;Signal;HPM_P1;HPM_P2
2021/12/02 00:01:20;;;;;;;1.03;0.93;;;;;;;4.81;100.00;94769.50;5074774;28;20495;-77
2021/12/02 00:03:48;;;;;;;1.00;0.90;;;;;;;4.73;100.00;94755.41;5074846;28;20425;-77
2021/12/02 00:06:17;;;;;;;1.20;1.10;;;;;;;4.86;100.00;94781.59;5091164;28;20501;-76
2021/12/02 00:08:46;;;;;;;1.00;0.90;;;;;;;4.93;100.00;94790.41;5091092;28;20435;-76
2021/12/02 00:11:13;;;;;;;1.27;1.00;;;;;;;4.90;100.00;94785.84;5074213;28;20486;-76
2021/12/02 00:16:29;;;;;;;0.80;0.80;;;;;;;4.86;100.00;94790.22;5092223;28;20472;-77
2021/12/02 00:21:45;;;;;;;1.17;0.90;;;;;;;4.83;100.00;94788.25;5091195;28;20463;-76
2021/12/02 00:24:18;;;;;;;0.90;0.83;;;;;;;4.81;100.00;94782.59;5074004;28;20819;-77
2021/12/02 00:26:47;;;;;;;0.90;0.90;;;;;;;4.45;100.00;94730.97;5092373;28;20786;-76
2021/12/02 00:29:18;;;;;;;1.00;0.90;;;;;;;4.66;100.00;94767.50;5057610;28;20496;-76
2021/12/02 00:31:49;;;;;;;1.00;0.90;;;;;;;4.56;100.00;94755.63;5091262;28;20463;-76
2021/12/02 00:34:15;;;;;;;1.13;1.03;;;;;;;4.77;100.00;94773.06;5057781;28;20542;-76
2021/12/02 00:36:44;;;;;;;1.43;0.90;;;;;;;4.46;100.00;94745.56;5073766;28;20436;-76
2021/12/02 00:39:20;;;;;;;1.00;0.90;;;;;;;4.57;100.00;94765.00;5090967;28;20451;-76
2021/12/02 00:41:47;;;;;;;1.10;1.00;;;;;;;4.66;100.00;94791.06;5073930;28;20459;-77
2021/12/02 00:44:15;;;;;;;1.00;0.90;;;;;;;4.54;100.00;94783.97;5073729;28;20463;-76
2021/12/02 00:46:44;;;;;;;1.00;0.90;;;;;;;4.64;100.00;94798.47;5073993;28;20829;-77
2021/12/02 00:49:14;;;;;;;0.90;0.83;;;;;;;4.40;100.00;94768.56;5092018;28;20439;-77
2021/12/02 00:51:46;;;;;;;1.50;1.37;;;;;;;4.51;100.00;94789.84;5092048;28;20447;-76
2021/12/02 00:54:13;;;;;;;1.10;1.00;;;;;;;4.62;100.00;94803.28;5073487;28;20456;-76
2021/12/02 00:56:40;;;;;;;1.70;1.13;;;;;;;4.48;100.00;94782.66;5090803;28;21149;-76
2021/12/02 00:59:08;;;;;;;1.03;0.93;;;;;;;4.58;100.00;94784.84;5090513;28;20443;-76
2021/12/02 01:01:37;;;;;;;1.50;0.97;;;;;;;4.65;100.00;94795.53;5073679;28;20813;-77
2021/12/02 01:04:15;;;;;;;1.07;0.97;;;;;;;4.47;100.00;94781.13;5090977;28;20439;-77
2021/12/02 01:06:42;;;;;;;1.03;1.00;;;;;;;4.66;100.00;94797.06;5091642;28;20419;-76
2021/12/02 01:09:11;;;;;;;1.20;0.87;;;;;;;4.66;100.00;94793.66;5092097;28;20449;-76
2021/12/02 01:11:40;;;;;;;1.20;1.10;;;;;;;4.66;100.00;94793.66;5090293;28;20541;-76
2021/12/02 01:14:08;;;;;;;2.03;1.03;;;;;;;4.73;100.00;94801.75;5074009;28;20965;-76
2021/12/02 01:16:35;;;;;;;1.43;1.07;;;;;;;4.57;100.00;94785.94;5091683;28;20432;-77
2021/12/02 01:19:04;;;;;;;1.07;0.97;;;;;;;4.70;100.00;94807.66;5056940;28;20443;-76
2021/12/02 01:21:31;;;;;;;1.20;1.10;;;;;;;4.51;100.00;94782.00;5074078;28;20525;-77
2021/12/02 01:24:03;;;;;;;1.10;1.00;;;;;;;4.56;100.00;94781.78;5073401;28;20488;-77
2021/12/02 01:26:33;;;;;;;1.53;1.43;;;;;;;4.48;100.00;94766.19;5073694;28;20436;-77
2021/12/02 01:29:01;;;;;;;2.20;1.50;;;;;;;4.62;100.00;94787.56;5073211;28;20493;-77
2021/12/02 01:31:31;;;;;;;1.73;1.20;;;;;;;4.29;100.00;94735.31;5075721;28;20500;-77
2021/12/02 01:34:01;;;;;;;0.90;0.90;;;;;;;4.75;100.00;94808.19;5093892;28;20582;-77
2021/12/02 01:36:40;;;;;;;1.10;1.00;;;;;;;4.57;100.00;94777.31;5094299;28;20903;-77
2021/12/02 01:39:08;;;;;;;1.70;1.60;;;;;;;4.63;100.00;94791.72;5060396;28;20423;-77
2021/12/02 01:41:43;;;;;;;1.20;1.10;;;;;;;4.62;100.00;94793.56;5077179;28;20539;-77
2021/12/02 01:44:12;;;;;;;1.90;1.30;;;;;;;4.74;100.00;94809.28;5077062;28;20512;-76
2021/12/02 01:46:41;;;;;;;1.50;1.40;;;;;;;4.72;100.00;94805.47;5077199;28;20484;-77
2021/12/02 01:49:12;;;;;;;1.97;1.40;;;;;;;4.73;100.00;94810.38;5076816;28;20443;-77
2021/12/02 01:51:48;;;;;;;2.33;1.57;;;;;;;4.62;100.00;94800.66;5077172;28;20459;-77
2021/12/02 01:54:18;;;;;;;2.20;1.23;;;;;;;4.63;100.00;94810.03;5077154;28;20446;-77
2021/12/02 01:56:46;;;;;;;1.67;1.40;;;;;;;4.48;100.00;94793.09;5076664;28;20978;-77
2021/12/02 01:59:22;;;;;;;1.70;1.60;;;;;;;4.54;100.00;94802.28;5077077;28;20859;-77
2021/12/02 02:01:55;;;;;;;1.80;1.57;;;;;;;4.67;100.00;94822.16;5060110;28;20466;-77
2021/12/02 02:04:23;;;;;;;3.63;1.60;;;;;;;4.66;100.00;94825.84;5076903;28;20412;-77
2021/12/02 02:06:54;;;;;;;1.57;0.97;;;;;;;4.62;100.00;94822.34;5095015;28;20427;-77
2021/12/02 02:09:42;;;;;;;1.23;1.13;;;;;;;4.45;100.00;94807.59;5096858;28;20482;-77
2021/12/02 02:12:12;;;;;;;1.60;1.30;;;;;;;4.54;100.00;94832.91;5031955;28;20477;-77
2021/12/02 02:14:41;;;;;;;2.00;1.27;;;;;;;4.48;100.00;94818.50;5031928;28;20496;-77
2021/12/02 02:17:16;;;;;;;1.40;1.30;;;;;;;4.17;100.00;94784.97;5032012;28;20454;-77
2021/12/02 02:19:43;;;;;;;1.67;1.57;;;;;;;4.30;100.00;94815.31;5015297;28;21056;-77
2021/12/02 02:22:12;;;;;;;5.67;2.13;;;;;;;4.34;100.00;94819.56;5032069;28;20462;-77
2021/12/02 02:24:38;;;;;;;1.50;1.40;;;;;;;4.31;100.00;94825.44;5031987;28;20578;-76
2021/12/02 02:27:05;;;;;;;4.30;1.80;;;;;;;4.12;100.00;94799.78;5031291;28;20492;-77
2021/12/02 02:29:32;;;;;;;4.00;1.60;;;;;;;4.14;100.00;94799.47;5015771;28;20434;-77
2021/12/02 02:31:59;;;;;;;4.00;1.40;;;;;;;4.39;100.00;94845.50;4998708;28;20489;-77
2021/12/02 02:34:26;;;;;;;2.63;2.43;;;;;;;4.19;100.00;94812.34;5031943;28;20466;-77
2021/12/02 02:36:57;;;;;;;4.33;1.60;;;;;;;4.40;100.00;94838.44;5031628;28;20531;-77
2021/12/02 02:39:25;;;;;;;2.40;1.90;;;;;;;4.13;100.00;94809.13;5015562;28;20427;-76
2021/12/02 02:42:00;;;;;;;1.30;1.20;;;;;;;4.21;100.00;94820.63;5014780;28;20458;-77
2021/12/02 02:44:30;;;;;;;2.17;1.97;;;;;;;4.30;100.00;94844.84;5031410;28;20939;-77
2021/12/02 02:46:57;;;;;;;3.93;1.27;;;;;;;4.17;100.00;94821.59;5031310;28;20883;-76
2021/12/02 02:49:24;;;;;;;1.40;1.30;;;;;;;4.28;100.00;94841.03;5070881;28;20481;-77
2021/12/02 02:51:51;;;;;;;1.60;1.50;;;;;;;4.09;100.00;94808.25;5097711;28;20463;-77
2021/12/02 02:54:19;;;;;;;2.30;2.20;;;;;;;4.23;100.00;94825.53;5095553;28;20478;-76
2021/12/02 02:57:07;;;;;;;2.23;1.83;;;;;;;3.95;100.00;94776.41;5094665;28;20901;-77
2021/12/02 03:02:31;;;;;;;2.73;1.63;;;;;;;4.23;100.00;94843.84;5110421;28;20494;-77
2021/12/02 03:17:46;;;;;;;2.73;2.50;;;;;;;4.11;100.00;94806.09;5093200;28;20471;-77
2021/12/02 03:20:14;;;;;;;3.80;1.93;;;;;;;4.24;100.00;94829.66;5076161;28;20894;-77
2021/12/02 03:22:41;;;;;;;3.90;2.40;;;;;;;4.19;100.00;94820.19;5076498;28;20460;-77
2021/12/02 03:25:08;;;;;;;2.27;2.03;;;;;;;4.27;100.00;94837.63;5092925;28;20459;-77
2021/12/02 03:27:35;;;;;;;2.90;1.97;;;;;;;4.02;100.00;94794.97;5059231;28;20477;-77
2021/12/02 03:30:08;;;;;;;2.93;1.90;;;;;;;3.99;100.00;94800.06;5093451;28;20427;-77
2021/12/02 03:32:37;;;;;;;10.40;3.43;;;;;;;4.33;100.00;94846.06;5091737;28;20455;-77
2021/12/02 03:35:06;;;;;;;5.57;2.00;;;;;;;4.13;100.00;94805.75;5058363;28;20547;-77
2021/12/02 03:37:32;;;;;;;2.60;2.13;;;;;;;4.07;100.00;94802.59;5075373;28;20434;-77
2021/12/02 03:39:59;;;;;;;4.00;1.83;;;;;;;4.13;100.00;94803.16;5092830;28;20463;-76
2021/12/02 03:42:26;;;;;;;2.20;2.00;;;;;;;4.22;100.00;94808.31;5091312;28;20512;-77
2021/12/02 03:44:53;;;;;;;3.00;1.87;;;;;;;4.28;100.00;94828.72;5092661;28;20424;-77
2021/12/02 03:47:19;;;;;;;5.30;2.60;;;;;;;4.35;100.00;94833.41;5092583;28;20865;-76
2021/12/02 03:49:47;;;;;;;4.20;2.67;;;;;;;4.07;100.00;94797.38;5074484;28;20443;-76
2021/12/02 03:52:13;;;;;;;2.40;2.20;;;;;;;4.33;100.00;94835.59;5057981;28;20470;-77
2021/12/02 03:54:40;;;;;;;2.90;1.90;;;;;;;4.11;100.00;94795.63;5092008;28;20485;-77
2021/12/02 03:57:07;;;;;;;2.73;2.13;;;;;;;4.09;100.00;94797.03;5058175;28;20431;-77
2021/12/02 03:59:34;;;;;;;3.80;2.00;;;;;;;4.29;100.00;94837.31;5074689;28;20440;-77
2021/12/02 04:02:01;;;;;;;3.03;2.83;;;;;;;4.01;100.00;94790.06;5074246;28;20494;-77
2021/12/02 04:04:29;;;;;;;3.60;2.30;;;;;;;4.22;100.00;94822.16;5091596;28;20484;-77
2021/12/02 04:06:55;;;;;;;2.17;1.97;;;;;;;4.29;100.00;94834.72;5076748;28;20472;-77
2021/12/02 04:09:24;;;;;;;4.73;2.83;;;;;;;4.27;100.00;94840.25;5087777;28;20443;-77
2021/12/02 04:14:54;;;;;;;4.43;2.27;;;;;;;3.98;100.00;94806.38;5085272;28;20524;-77
2021/12/02 04:17:29;;;;;;;4.93;3.37;;;;;;;4.06;100.00;94818.59;5074599;28;20432;-77
2021/12/02 04:19:56;;;;;;;4.70;4.00;;;;;;;4.02;100.00;94807.28;5091282;28;20449;-77
2021/12/02 04:22:23;;;;;;;3.43;2.50;;;;;;;4.10;100.00;94819.47;5090951;28;20447;-77
2021/12/02 04:24:50;;;;;;;5.23;1.90;;;;;;;4.07;100.00;94820.91;5091000;28;20526;-77
2021/12/02 04:27:16;;;;;;;3.90;2.97;;;;;;;3.99;100.00;94816.50;5090864;28;20439;-77
2021/12/02 04:29:43;;;;;;;2.50;2.20;;;;;;;4.24;100.00;94853.22;5090850;28;20475;-77
2021/12/02 04:32:10;;;;;;;1.87;1.77;;;;;;;4.05;100.00;94819.69;5090548;28;20467;-77
2021/12/02 04:34:36;;;;;;;3.30;3.00;;;;;;;4.24;100.00;94869.66;5090566;28;20895;-77
2021/12/02 04:37:03;;;;;;;5.33;2.70;;;;;;;4.24;100.00;94855.81;5090410;28;20423;-77
2021/12/02 04:39:30;;;;;;;3.60;2.50;;;;;;;3.93;100.00;94817.78;5073551;28;20463;-77
2021/12/02 04:41:57;;;;;;;5.10;2.47;;;;;;;3.90;100.00;94812.44;5090569;28;20590;-77
2021/12/02 04:44:29;;;;;;;3.30;2.40;;;;;;;4.05;100.00;94838.75;5091268;28;20960;-77
2021/12/02 04:46:56;;;;;;;5.90;2.07;;;;;;;3.85;100.00;94813.38;5090454;28;20864;-77
2021/12/02 04:49:23;;;;;;;2.80;2.60;;;;;;;4.01;100.00;94837.88;5091490;28;20854;-77
2021/12/02 04:51:49;;;;;;;2.67;2.40;;;;;;;3.89;100.00;94824.00;5090194;28;20554;-77
2021/12/02 04:54:16;;;;;;;2.47;1.70;;;;;;;4.12;100.00;94853.91;5107222;28;20517;-77
2021/12/02 04:56:43;;;;;;;4.70;2.70;;;;;;;3.97;100.00;94839.59;5073804;28;20469;-77
2021/12/02 04:59:10;;;;;;;3.53;2.37;;;;;;;3.75;100.00;94805.97;5090121;28;20993;-77
2021/12/02 05:01:37;;;;;;;2.90;2.60;;;;;;;4.08;100.00;94843.34;5090492;28;20880;-77
2021/12/02 05:04:04;;;;;;;3.10;2.87;;;;;;;3.95;100.00;94826.06;5090416;28;20447;-77
2021/12/02 05:06:31;;;;;;;2.90;2.50;;;;;;;4.15;100.00;94863.75;5093237;28;20427;-77
2021/12/02 05:08:58;;;;;;;2.90;2.23;;;;;;;4.00;100.00;94843.41;5096002;28;20944;-77
2021/12/02 05:11:25;;;;;;;2.37;2.13;;;;;;;3.76;100.00;94836.25;5095820;28;20450;-77
2021/12/02 05:13:53;;;;;;;3.00;2.67;;;;;;;3.73;100.00;94829.78;5094033;28;20993;-77
2021/12/02 05:16:20;;;;;;;4.10;3.40;;;;;;;3.86;100.00;94835.84;5061157;28;20479;-77
2021/12/02 05:18:46;;;;;;;2.30;2.13;;;;;;;3.96;100.00;94835.44;5077329;28;20534;-77
2021/12/02 05:21:13;;;;;;;4.20;3.43;;;;;;;3.85;100.00;94836.91;5077213;28;20462;-77
2021/12/02 05:23:40;;;;;;;5.80;2.37;;;;;;;3.99;100.00;94850.50;5077765;28;20465;-77
2021/12/02 05:26:06;;;;;;;4.60;2.43;;;;;;;3.77;100.00;94824.69;5077278;28;20478;-77
2021/12/02 05:28:33;;;;;;;3.77;1.87;;;;;;;3.87;100.00;94855.66;5084007;28;20469;-78
2021/12/02 05:31:00;;;;;;;1.87;1.77;;;;;;;3.67;100.00;94840.75;5061142;28;20539;-76
2021/12/02 05:33:27;;;;;;;2.70;1.90;;;;;;;3.86;100.00;94861.97;5077189;28;20473;-77
2021/12/02 05:35:53;;;;;;;5.00;2.50;;;;;;;3.62;100.00;94851.41;5093651;28;20542;-77
2021/12/02 05:38:20;;;;;;;2.50;1.77;;;;;;;3.46;100.00;94831.03;5077027;28;20858;-77
2021/12/02 05:40:47;;;;;;;1.77;1.67;;;;;;;3.49;100.00;94840.13;5076904;28;20474;-77
2021/12/02 05:43:14;;;;;;;2.17;1.90;;;;;;;3.53;100.00;94864.50;5060458;28;20545;-77
2021/12/02 05:45:41;;;;;;;2.10;2.00;;;;;;;3.41;100.00;94862.59;5077411;28;20958;-77
2021/12/02 05:48:08;;;;;;;2.03;1.90;;;;;;;3.37;100.00;94871.38;5060447;28;20439;-77
2021/12/02 05:50:34;;;;;;;2.07;1.90;;;;;;;3.24;100.00;94862.69;5077038;28;20469;-77
2021/12/02 05:53:01;;;;;;;3.00;2.13;;;;;;;3.10;100.00;94859.53;5078375;28;21025;-77
2021/12/02 05:55:28;;;;;;;3.90;2.50;;;;;;;3.22;100.00;94875.28;5077087;28;20455;-77
2021/12/02 05:57:54;;;;;;;1.77;1.67;;;;;;;3.10;100.00;94883.78;5076602;28;20500;-77
2021/12/02 06:00:21;;;;;;;2.50;2.30;;;;;;;3.15;100.00;94885.44;5060191;28;20847;-77
2021/12/02 06:02:48;;;;;;;3.73;2.33;;;;;;;3.19;100.00;94883.72;5076909;28;20435;-77
2021/12/02 06:05:21;;;;;;;5.30;3.20;;;;;;;3.03;100.00;94857.38;5076345;28;20526;-76
2021/12/02 06:07:50;;;;;;;4.40;2.73;;;;;;;3.01;100.00;94864.78;5093437;28;20813;-76
2021/12/02 06:10:17;;;;;;;2.97;2.67;;;;;;;2.88;100.00;94840.41;5094547;28;20453;-76
2021/12/02 06:12:44;;;;;;;4.77;2.27;;;;;;;3.01;100.00;94867.38;5094302;28;20961;-77
2021/12/02 06:15:12;;;;;;;4.50;2.87;;;;;;;3.12;100.00;94876.41;5094388;28;20506;-77
2021/12/02 06:17:39;;;;;;;3.27;2.30;;;;;;;2.84;100.00;94839.50;5094109;28;21255;-76
2021/12/02 06:20:07;;;;;;;4.17;2.90;;;;;;;3.00;100.00;94846.81;5076160;28;20431;-76
2021/12/02 06:22:33;;;;;;;3.03;2.30;;;;;;;2.82;100.00;94856.56;5076455;28;20500;-76
2021/12/02 06:27:44;;;;;;;1.23;1.13;;;;;;;2.84;100.00;94883.88;5092914;28;20931;-77
2021/12/02 06:30:14;;;;;;;1.43;1.33;;;;;;;2.50;100.00;94870.91;5075968;28;20530;-77
2021/12/02 06:32:41;;;;;;;2.60;1.33;;;;;;;2.82;100.00;94900.94;5094051;28;20874;-77
2021/12/02 06:35:08;;;;;;;3.87;1.40;;;;;;;2.48;100.00;94899.91;5059210;28;20885;-77
2021/12/02 06:37:36;;;;;;;2.73;2.40;;;;;;;2.47;100.00;94874.91;5075996;28;20573;-77
2021/12/02 06:40:04;;;;;;;10.10;5.50;;;;;;;2.67;100.00;94905.56;5076047;28;20431;-77
2021/12/02 06:42:30;;;;;;;4.57;2.70;;;;;;;2.45;100.00;94874.47;5092422;28;20508;-77
2021/12/02 06:44:57;;;;;;;5.37;3.40;;;;;;;2.65;100.00;94910.31;5093858;28;20419;-77
2021/12/02 06:47:31;;;;;;;8.73;4.70;;;;;;;2.40;100.00;94886.88;5075522;28;20478;-77
2021/12/02 06:50:01;;;;;;;2.30;2.10;;;;;;;2.57;100.00;94918.16;5092357;28;20501;-77
2021/12/02 06:52:27;;;;;;;3.30;1.90;;;;;;;2.22;100.00;94867.91;5075371;28;20558;-77
2021/12/02 06:54:55;;;;;;;2.13;1.93;;;;;;;2.31;100.00;94897.34;5075321;28;20463;-77
2021/12/02 06:57:22;;;;;;;2.40;1.90;;;;;;;2.26;100.00;94890.41;5058733;28;20471;-77
2021/12/02 06:59:48;;;;;;;3.00;1.87;;;;;;;2.21;100.00;94889.81;5059215;28;20489;-77
2021/12/02 07:02:15;;;;;;;2.70;1.87;;;;;;;2.23;100.00;94909.28;5076107;28;20470;-77
2021/12/02 07:04:42;;;;;;;1.90;1.80;;;;;;;2.12;100.00;94881.22;5075312;28;20560;-77
2021/12/02 07:07:08;;;;;;;1.80;1.70;;;;;;;2.14;100.00;94884.28;5075746;28;20471;-77
2021/12/02 07:09:35;;;;;;;3.33;2.30;;;;;;;2.06;100.00;94896.28;5080862;28;20454;-77
2021/12/02 07:12:02;;;;;;;1.57;1.47;;;;;;;2.14;100.00;94918.19;5075279;28;20487;-77
2021/12/02 07:14:29;;;;;;;2.23;2.13;;;;;;;1.76;100.00;94866.69;5091972;28;20473;-77
2021/12/02 07:16:57;;;;;;;2.80;2.40;;;;;;;1.81;100.00;94878.78;5075167;28;20435;-77
2021/12/02 07:19:25;;;;;;;4.43;3.47;;;;;;;2.01;100.00;94912.06;5075115;28;20454;-77
2021/12/02 07:21:55;;;;;;;2.20;2.10;;;;;;;1.90;100.00;94908.22;5075173;28;20493;-77
2021/12/02 07:24:23;;;;;;;5.47;2.50;;;;;;;1.58;100.00;94860.69;5091745;28;20441;-77
2021/12/02 07:27:05;;;;;;;1.73;1.63;;;;;;;1.55;100.00;94866.50;5093050;28;20473;-77
2021/12/02 07:29:32;;;;;;;2.20;1.53;;;;;;;1.93;100.00;94929.22;5092447;28;20428;-77
2021/12/02 07:32:04;;;;;;;2.33;2.17;;;;;;;1.76;100.00;94911.75;5091934;28;20525;-77
2021/12/02 07:34:34;;;;;;;3.93;2.83;;;;;;;1.70;100.00;94915.53;5074979;28;20437;-77
2021/12/02 07:37:02;;;;;;;6.30;3.00;;;;;;;1.90;100.00;94945.47;5093006;28;20450;-77
2021/12/02 07:39:29;;;;;;;2.30;2.10;;;;;;;1.92;100.00;94953.75;5091625;28;20440;-77
2021/12/02 07:41:56;;;;;;;2.57;2.37;;;;;;;1.87;100.00;94945.28;5091778;28;20834;-77
2021/12/02 07:44:23;;;;;;;2.60;2.20;;;;;;;1.76;100.00;94931.81;5108526;28;20466;-77
2021/12/02 07:46:50;;;;;;;1.87;1.77;;;;;;;1.68;100.00;94927.34;5091489;28;20440;-77
2021/12/02 07:49:17;;;;;;;2.63;2.37;;;;;;;1.71;100.00;94934.56;5091421;28;21008;-77
2021/12/02 07:51:45;;;;;;;2.70;1.93;;;;;;;1.77;100.00;94947.13;5091355;28;20448;-77
2021/12/02 07:54:13;;;;;;;1.93;1.80;;;;;;;1.83;100.00;94950.34;5091204;28;20436;-77
2021/12/02 07:56:39;;;;;;;2.47;2.13;;;;;;;1.84;100.00;94932.88;5091538;28;20460;-77
2021/12/02 07:59:09;;;;;;;3.40;2.40;;;;;;;1.74;100.00;94921.69;5091700;28;20439;-77
2021/12/02 08:01:36;;;;;;;1.60;1.43;;;;;;;1.99;100.00;94950.69;5108367;28;20512;-77
2021/12/02 08:04:03;;;;;;;3.13;2.83;;;;;;;1.99;100.00;94945.47;5091066;28;20442;-77
2021/12/02 08:06:30;;;;;;;2.60;2.40;;;;;;;1.87;100.00;94940.09;5074918;28;20439;-76
2021/12/02 08:08:56;;;;;;;2.47;2.27;;;;;;;1.70;100.00;94918.16;5092061;28;20482;-77
2021/12/02 08:11:23;;;;;;;2.43;2.20;;;;;;;1.86;100.00;94947.13;5074405;28;21047;-77
2021/12/02 08:13:53;;;;;;;2.27;2.00;;;;;;;2.01;100.00;94959.75;5074433;28;20443;-77
2021/12/02 08:16:19;;;;;;;1.93;1.83;;;;;;;1.62;100.00;94921.53;5091506;28;20486;-77
2021/12/02 08:18:46;;;;;;;2.03;1.93;;;;;;;1.82;100.00;94961.09;5091187;28;20510;-77
2021/12/02 08:21:13;;;;;;;2.40;2.20;;;;;;;1.69;100.00;94934.84;5092835;28;20791;-77
2021/12/02 08:23:40;;;;;;;2.37;1.47;;;;;;;1.77;100.00;94943.78;5074437;28;20534;-77
2021/12/02 08:26:06;;;;;;;2.53;2.33;;;;;;;1.80;100.00;94937.19;5090973;28;20966;-77
2021/12/02 08:28:33;;;;;;;2.03;1.93;;;;;;;1.76;100.00;94937.78;5090817;28;20431;-77
2021/12/02 08:31:00;;;;;;;2.20;2.10;;;;;;;1.55;100.00;94928.22;5091331;28;20504;-77
2021/12/02 08:33:27;;;;;;;2.70;2.33;;;;;;;2.01;100.00;94966.81;5107811;28;20469;-77
2021/12/02 08:35:54;;;;;;;2.33;2.13;;;;;;;1.56;100.00;94904.50;5107755;28;20463;-77
2021/12/02 08:38:29;;;;;;;3.07;2.80;;;;;;;1.75;100.00;94931.06;5074708;28;20471;-77
2021/12/02 08:40:57;;;;;;;6.10;5.50;;;;;;;1.70;100.00;94933.78;5091713;28;20459;-77
2021/12/02 08:43:25;;;;;;;4.77;4.37;;;;;;;1.69;100.00;94942.66;5092706;28;20878;-77
2021/12/02 08:45:52;;;;;;;5.23;4.80;;;;;;;1.90;100.00;94970.75;5092343;28;20469;-77
2021/12/02 08:48:19;;;;;;;7.80;5.10;;;;;;;1.74;100.00;94952.19;5109904;28;20449;-77
2021/12/02 08:50:47;;;;;;;3.97;3.70;;;;;;;1.82;100.00;94976.72;5111187;28;20455;-77
2021/12/02 08:53:14;;;;;;;4.50;4.10;;;;;;;1.58;100.00;94940.66;5094621;28;20482;-78
2021/12/02 08:55:43;;;;;;;4.00;3.70;;;;;;;1.54;100.00;94970.97;5093435;28;20549;-78
2021/12/02 08:58:10;;;;;;;6.03;5.30;;;;;;;1.29;100.00;94964.59;5093589;28;20443;-77
2021/12/02 09:00:39;;;;;;;4.87;3.77;;;;;;;1.19;100.00;94966.38;5077173;28;20431;-78
2021/12/02 09:03:09;;;;;;;3.57;3.30;;;;;;;1.35;100.00;94979.03;5094479;28;20538;-77
2021/12/02 09:05:36;;;;;;;3.33;3.10;;;;;;;1.35;100.00;94966.03;5079012;28;20466;-77
2021/12/02 09:08:04;;;;;;;2.97;2.77;;;;;;;1.51;100.00;94982.00;5097228;28;20471;-77
2021/12/02 09:10:31;;;;;;;3.83;3.53;;;;;;;1.51;100.00;94979.41;5096971;28;20496;-77
2021/12/02 09:12:58;;;;;;;3.67;3.37;;;;;;;1.35;100.00;94997.25;5079700;28;20500;-77
2021/12/02 09:15:25;;;;;;;3.00;2.00;;;;;;;0.88;100.00;94937.03;5094391;28;20469;-77
2021/12/02 09:17:54;;;;;;;1.30;1.20;;;;;;;1.29;100.00;94982.81;5077374;28;20781;-77
2021/12/02 09:20:21;;;;;;;1.40;1.30;;;;;;;1.48;100.00;94978.94;5075375;28;20439;-77
2021/12/02 09:22:48;;;;;;;1.53;1.43;;;;;;;1.46;100.00;94980.28;5091627;28;20439;-77
2021/12/02 09:25:16;;;;;;;1.43;1.33;;;;;;;1.58;100.00;94990.13;5091450;28;20479;-77
2021/12/02 09:27:45;;;;;;;2.47;2.37;;;;;;;1.44;100.00;94953.78;5092999;28;20435;-77
2021/12/02 09:30:14;;;;;;;3.13;2.90;;;;;;;1.67;100.00;94976.06;5078476;28;20462;-77
2021/12/02 09:32:41;;;;;;;2.80;2.60;;;;;;;1.72;100.00;94983.72;5076977;28;20469;-77
2021/12/02 09:35:09;;;;;;;2.47;2.27;;;;;;;1.75;100.00;94990.97;5076546;28;20489;-78
2021/12/02 09:37:37;;;;;;;2.80;2.60;;;;;;;1.60;100.00;94990.59;5093591;28;20525;-78
2021/12/02 09:40:07;;;;;;;2.30;2.10;;;;;;;1.30;100.00;94960.94;5076539;28;20435;-78
2021/12/02 09:42:34;;;;;;;5.67;5.03;;;;;;;1.25;100.00;94955.88;5093145;28;20520;-78
2021/12/02 09:45:01;;;;;;;7.23;6.50;;;;;;;1.41;100.00;94967.41;5096572;28;20938;-78
2021/12/02 09:47:31;;;;;;;7.53;6.30;;;;;;;1.66;100.00;94969.31;5099088;28;20439;-77
2021/12/02 09:50:03;;;;;;;4.50;4.20;;;;;;;1.78;100.00;94979.94;5103943;28;20477;-77
2021/12/02 09:52:35;;;;;;;4.40;4.00;;;;;;;1.67;100.00;94957.84;5104533;28;20458;-78
2021/12/02 09:55:08;;;;;;;4.17;3.90;;;;;;;1.71;100.00;94950.19;5106616;28;20450;-78
2021/12/02 09:57:42;;;;;;;3.77;3.57;;;;;;;1.93;100.00;94976.13;5086931;28;20439;-78
2021/12/02 10:00:16;;;;;;;4.53;4.13;;;;;;;1.74;100.00;94976.41;5107249;28;20773;-78
2021/12/02 10:03:04;;;;;;;6.53;3.93;;;;;;;1.41;100.00;94934.31;5102042;28;20443;-78
2021/12/02 10:05:42;;;;;;;4.30;4.00;;;;;;;1.55;100.00;94962.09;5100053;28;20477;-78
2021/12/02 10:08:13;;;;;;;4.70;4.30;;;;;;;1.54;100.00;94974.34;5098851;28;20443;-78
2021/12/02 10:10:54;;;;;;;4.83;4.43;;;;;;;1.70;100.00;94965.03;5099438;28;20495;-78
2021/12/02 10:13:30;;;;;;;3.83;3.53;;;;;;;1.44;100.00;94931.13;5084169;28;20434;-78
2021/12/02 10:16:17;;;;;;;3.80;3.60;;;;;;;1.83;100.00;94970.44;5084110;28;20459;-78
2021/12/02 10:18:57;;;;;;;3.73;3.43;;;;;;;1.64;100.00;94942.06;5084967;28;20438;-78
2021/12/02 10:21:35;;;;;;;3.40;3.20;;;;;;;1.81;100.00;94956.94;5067545;28;21011;-77
2021/12/02 10:24:14;;;;;;;3.67;3.20;;;;;;;1.72;100.00;94965.50;5068318;28;21001;-78
2021/12/02 10:26:45;;;;;;;3.37;2.80;;;;;;;1.71;100.00;94974.38;5085809;28;20434;-79
2021/12/02 10:29:19;;;;;;;5.03;3.50;;;;;;;1.52;100.00;94947.84;5086266;28;20839;-78
2021/12/02 10:32:03;;;;;;;4.33;3.20;;;;;;;1.35;100.00;94940.00;5104772;28;20469;-78
2021/12/02 10:34:30;;;;;;;4.30;4.00;;;;;;;1.30;100.00;94940.09;5069313;28;20431;-78
2021/12/02 10:37:09;;;;;;;3.40;3.10;;;;;;;1.41;100.00;94936.16;5068155;28;20512;-77
2021/12/02 10:39:36;;;;;;;4.20;3.83;;;;;;;1.15;100.00;94952.44;5083109;28;20443;-78
2021/12/02 10:42:09;;;;;;;4.33;3.73;;;;;;;1.55;100.00;94981.09;5084530;28;20450;-78
2021/12/02 10:44:39;;;;;;;6.20;4.70;;;;;;;1.61;100.00;94961.66;5102126;28;20454;-78
2021/12/02 10:47:09;;;;;;;6.00;5.20;;;;;;;1.58;100.00;94962.25;5085536;28;20437;-78
2021/12/02 10:49:52;;;;;;;5.77;4.40;;;;;;;1.70;100.00;94964.28;5085785;28;20424;-79
2021/12/02 10:52:27;;;;;;;7.13;5.00;;;;;;;1.64;100.00;94945.44;5084857;28;20459;-79
2021/12/02 10:55:00;;;;;;;6.50;4.90;;;;;;;1.98;100.00;94962.94;5084294;28;20426;-78
2021/12/02 10:57:29;;;;;;;4.73;4.27;;;;;;;1.58;100.00;94904.94;5104581;28;20765;-78
2021/12/02 10:59:59;;;;;;;6.27;4.90;;;;;;;1.82;100.00;94942.84;5069347;28;20496;-79
2021/12/02 11:02:35;;;;;;;5.33;4.83;;;;;;;2.03;100.00;94956.84;5084946;28;20842;-78
2021/12/02 11:05:07;;;;;;;6.97;6.37;;;;;;;1.96;100.00;94959.88;5102761;28;20859;-79
2021/12/02 11:07:39;;;;;;;8.10;7.10;;;;;;;1.95;100.00;94958.34;5085168;28;20434;-78
2021/12/02 11:10:12;;;;;;;6.17;5.50;;;;;;;1.90;100.00;94965.56;5093655;28;20447;-78
2021/12/02 11:12:41;;;;;;;5.13;4.63;;;;;;;1.68;100.00;94979.44;5083210;28;20459;-76
2021/12/02 11:15:11;;;;;;;5.43;4.93;;;;;;;1.48;100.00;94963.31;5100020;28;20471;-78
2021/12/02 11:17:39;;;;;;;5.87;4.00;;;;;;;1.42;100.00;94967.09;5100749;28;20486;-78
2021/12/02 11:20:09;;;;;;;4.70;4.17;;;;;;;1.53;100.00;94964.22;5103644;28;20444;-77
2021/12/02 11:22:36;;;;;;;7.40;5.80;;;;;;;1.59;100.00;94940.34;5100623;28;20516;-77
2021/12/02 11:25:07;;;;;;;4.90;3.00;;;;;;;2.10;100.00;94962.34;5080432;28;20451;-78
2021/12/02 11:27:41;;;;;;;3.40;2.70;;;;;;;2.21;100.00;94915.91;5078923;28;20419;-77
2021/12/02 11:30:12;;;;;;;3.13;2.93;;;;;;;2.47;100.00;94944.56;5098019;28;20431;-78
2021/12/02 11:32:53;;;;;;;2.07;1.97;;;;;;;2.76;100.00;94962.16;5099351;28;20489;-77
2021/12/02 11:35:40;;;;;;;3.00;2.80;;;;;;;2.84;100.00;94970.00;5099629;28;20443;-78
2021/12/02 11:38:08;;;;;;;2.43;2.23;;;;;;;2.82;100.00;94974.75;5098000;28;20431;-78
2021/12/02 11:40:42;;;;;;;2.80;2.60;;;;;;;2.73;100.00;94981.81;5097650;28;20454;-77
2021/12/02 11:43:13;;;;;;;5.90;5.47;;;;;;;2.52;100.00;94967.88;5080844;28;20432;-77
2021/12/02 11:45:46;;;;;;;8.30;7.50;;;;;;;2.44;100.00;94956.38;5079835;28;20443;-78
2021/12/02 11:48:18;;;;;;;9.73;6.50;;;;;;;2.52;100.00;94984.28;5096465;28;20428;-78
2021/12/02 11:50:47;;;;;;;9.37;8.47;;;;;;;2.48;100.00;94964.34;5081621;28;20459;-78
2021/12/02 11:53:20;;;;;;;13.50;12.10;;;;;;;2.11;100.00;94901.31;5098782;28;20544;-77
2021/12/02 11:56:00;;;;;;;5.60;4.67;;;;;;;2.61;100.00;94977.22;5098581;28;20449;-78
2021/12/02 11:58:28;;;;;;;12.23;6.40;;;;;;;2.49;100.00;94960.66;5099827;28;20446;-78
2021/12/02 12:00:56;;;;;;;6.20;4.97;;;;;;;2.46;100.00;94948.25;5082664;28;20459;-78
2021/12/02 12:03:29;;;;;;;10.40;9.33;;;;;;;2.36;100.00;94941.50;5082917;28;20447;-78
2021/12/02 12:05:59;;;;;;;3.37;3.00;;;;;;;2.45;100.00;94957.91;5101391;28;21017;-78
2021/12/02 12:08:36;;;;;;;4.17;3.67;;;;;;;2.56;100.00;94979.25;5101111;28;20435;-78
2021/12/02 12:11:18;;;;;;;5.60;5.13;;;;;;;2.50;100.00;94986.44;5080835;28;20462;-78